createdAt,value
2018-07-13T00:02:12.804Z,101424.95
2018-07-13T00:04:41.381Z,101426.70
2018-07-13T00:07:09.786Z,101421.06
2018-07-13T00:09:38.213Z,101423.71
2018-07-13T00:12:06.647Z,101430.27
2018-07-13T00:14:35.083Z,101435.55
2018-07-13T00:17:03.814Z,101430.77
2018-07-13T00:19:32.241Z,101437.77
2018-07-13T00:22:00.651Z,101442.17
2018-07-13T00:24:29.088Z,101436.50
2018-07-13T00:26:57.503Z,101430.40
2018-07-13T00:29:25.933Z,101442.22
2018-07-13T00:31:54.343Z,101440.47
2018-07-13T00:34:22.773Z,101447.03
2018-07-13T00:36:51.188Z,101441.39
2018-07-13T00:39:19.614Z,101435.26
2018-07-13T00:41:48.031Z,101433.52
2018-07-13T00:44:16.467Z,101438.79
2018-07-13T00:46:44.874Z,101437.91
2018-07-13T00:49:13.306Z,101431.80
2018-07-13T00:51:41.735Z,101430.92
2018-07-13T00:54:10.174Z,101430.92
2018-07-13T00:56:38.578Z,101424.38
2018-07-13T00:59:07.008Z,101420.90
2018-07-13T01:01:35.422Z,101427.45
2018-07-13T01:04:03.849Z,101420.45
2018-07-13T01:06:32.268Z,101425.27
2018-07-13T01:09:00.689Z,101419.17
2018-07-13T01:11:29.130Z,101423.98
2018-07-13T01:13:57.559Z,101423.11
2018-07-13T01:16:25.974Z,101421.82
2018-07-13T01:18:54.405Z,101424.88
2018-07-13T01:21:22.815Z,101416.98
2018-07-13T01:23:51.251Z,101406.97
2018-07-13T01:26:19.682Z,101424.45
2018-07-13T01:28:48.112Z,101429.23
2018-07-13T01:31:16.545Z,101421.38
2018-07-13T01:33:44.999Z,101419.22
2018-07-13T01:36:13.406Z,101416.58
2018-07-13T01:38:41.822Z,101418.76
2018-07-13T01:41:10.245Z,101417.03
2018-07-13T01:43:38.706Z,101419.66
2018-07-13T01:46:07.230Z,101411.34
2018-07-13T01:48:35.634Z,101414.42
2018-07-13T01:51:04.099Z,101413.09
2018-07-13T01:53:32.522Z,101409.17
2018-07-13T01:56:00.949Z,101409.59
2018-07-13T01:58:29.362Z,101412.23
2018-07-13T02:00:57.791Z,101414.84
2018-07-13T02:03:26.222Z,101417.48
2018-07-13T02:05:54.654Z,101413.98
2018-07-13T02:08:23.053Z,101414.84
2018-07-13T02:10:51.511Z,101413.55
2018-07-13T02:13:19.923Z,101414.41
2018-07-13T02:15:48.362Z,101409.19
2018-07-13T02:18:16.788Z,101409.63
2018-07-13T02:20:45.216Z,101407.44
2018-07-13T02:23:13.633Z,101414.44
2018-07-13T02:25:42.069Z,101413.98
2018-07-13T02:28:10.474Z,101414.00
2018-07-13T02:30:38.902Z,101418.31
2018-07-13T02:33:07.310Z,101416.56
2018-07-13T02:35:35.812Z,101416.56
2018-07-13T02:38:04.235Z,101417.47
2018-07-13T02:40:32.678Z,101425.31
2018-07-13T02:43:01.090Z,101422.70
2018-07-13T02:45:29.518Z,101421.38
2018-07-13T02:47:58.007Z,101420.95
2018-07-13T02:50:26.435Z,101420.52
2018-07-13T02:52:54.849Z,101427.91
2018-07-13T02:55:23.282Z,101426.18
2018-07-13T02:57:51.699Z,101433.17
2018-07-13T03:00:20.155Z,101429.23
2018-07-13T03:02:48.571Z,101423.11
2018-07-13T03:05:17.003Z,101432.72
2018-07-13T03:07:45.422Z,101437.97
2018-07-13T03:10:13.864Z,101427.48
2018-07-13T03:12:42.298Z,101425.29
2018-07-13T03:15:10.827Z,101429.23
2018-07-13T03:17:39.222Z,101434.48
2018-07-13T03:20:07.649Z,101434.91
2018-07-13T03:22:36.050Z,101434.46
2018-07-13T03:25:04.550Z,101439.26
2018-07-13T03:27:32.958Z,101434.46
2018-07-13T03:30:01.386Z,101439.26
2018-07-13T03:32:29.796Z,101440.13
2018-07-13T03:34:58.247Z,101435.79
2018-07-13T03:37:26.659Z,101441.45
2018-07-13T03:39:55.062Z,101444.94
2018-07-13T03:42:23.495Z,101445.82
2018-07-13T03:44:51.898Z,101453.23
2018-07-13T03:47:20.339Z,101454.12
2018-07-13T03:49:48.751Z,101456.75
2018-07-13T03:52:17.190Z,101459.80
2018-07-13T03:54:45.608Z,101457.59
2018-07-13T03:57:14.033Z,101459.81
2018-07-13T03:59:42.438Z,101459.36
2018-07-13T04:02:10.866Z,101459.80
2018-07-13T04:04:39.276Z,101462.42
2018-07-13T04:07:07.766Z,101456.30
2018-07-13T04:09:36.151Z,101459.36
2018-07-13T04:12:04.605Z,101457.61
2018-07-13T04:14:33.021Z,101456.31
2018-07-13T04:17:01.454Z,101458.92
2018-07-13T04:19:29.862Z,101461.55
2018-07-13T04:21:58.314Z,101464.17
2018-07-13T04:24:26.730Z,101459.81
2018-07-13T04:26:55.166Z,101457.63
2018-07-13T04:29:23.575Z,101469.88
2018-07-13T04:31:52.097Z,101462.46
2018-07-13T04:34:20.540Z,101464.64
2018-07-13T04:36:48.962Z,101458.11
2018-07-13T04:39:17.375Z,101467.71
2018-07-13T04:41:45.826Z,101471.63
2018-07-13T04:44:14.237Z,101468.59
2018-07-13T04:46:42.670Z,101473.80
2018-07-13T04:49:11.082Z,101472.03
2018-07-13T04:51:39.529Z,101473.77
2018-07-13T04:54:07.954Z,101469.80
2018-07-13T04:56:36.382Z,101475.45
2018-07-13T04:59:04.845Z,101479.83
2018-07-13T05:01:33.270Z,101480.67
2018-07-13T05:04:01.675Z,101477.56
2018-07-13T05:06:30.102Z,101477.55
2018-07-13T05:08:58.511Z,101480.55
2018-07-13T05:11:26.965Z,101480.95
2018-07-13T05:13:55.383Z,101483.52
2018-07-13T05:16:23.805Z,101486.09
2018-07-13T05:18:52.213Z,101480.80
2018-07-13T05:21:20.692Z,101479.84
2018-07-13T05:23:49.104Z,101474.98
2018-07-13T05:26:17.534Z,101481.08
2018-07-13T05:28:45.966Z,101475.76
2018-07-13T05:31:14.659Z,101481.85
2018-07-13T05:33:43.140Z,101486.14
2018-07-13T05:36:11.646Z,101490.89
2018-07-13T05:38:40.199Z,101496.53
2018-07-13T05:41:08.606Z,101497.32
2018-07-13T05:43:37.038Z,101503.79
2018-07-13T05:46:05.455Z,101505.84
2018-07-13T05:48:34.554Z,101503.95
2018-07-13T05:51:03.024Z,101513.48
2018-07-13T05:53:31.618Z,101515.97
2018-07-13T05:56:00.064Z,101515.78
2018-07-13T05:58:28.611Z,101516.54
2018-07-13T06:00:57.035Z,101509.86
2018-07-13T06:03:25.535Z,101513.30
2018-07-13T06:05:54.063Z,101514.52
2018-07-13T06:08:22.515Z,101515.78
2018-07-13T06:10:51.139Z,101514.85
2018-07-13T06:13:19.587Z,101509.51
2018-07-13T06:15:47.999Z,101515.98
2018-07-13T06:18:16.428Z,101516.73
2018-07-13T06:20:44.841Z,101520.56
2018-07-13T06:23:13.458Z,101518.66
2018-07-13T06:25:42.143Z,101517.63
2018-07-13T06:28:10.581Z,101518.81
2018-07-13T06:30:39.073Z,101523.55
2018-07-13T06:33:08.099Z,101524.34
2018-07-13T06:35:36.617Z,101523.35
2018-07-13T06:38:05.723Z,101523.23
2018-07-13T06:40:34.212Z,101524.91
2018-07-13T06:43:02.618Z,101535.33
2018-07-13T06:45:31.546Z,101530.80
2018-07-13T06:47:59.982Z,101534.62
2018-07-13T06:50:28.450Z,101533.61
2018-07-13T06:52:56.874Z,101541.42
2018-07-13T06:55:25.277Z,101532.94
2018-07-13T06:58:04.990Z,101523.61
2018-07-13T07:01:08.597Z,101529.21
2018-07-13T07:04:48.213Z,101530.86
2018-07-13T07:07:20.947Z,101531.16
2018-07-13T07:09:52.300Z,101528.97
2018-07-13T07:13:28.266Z,101537.69
2018-07-13T07:15:56.695Z,101541.18
2018-07-13T07:18:25.205Z,101542.05
2018-07-13T07:20:53.973Z,101539.38
2018-07-13T07:23:22.422Z,101545.03
2018-07-13T07:25:50.865Z,101543.73
2018-07-13T07:28:19.310Z,101543.66
2018-07-13T07:30:47.750Z,101548.50
2018-07-13T07:33:16.192Z,101555.48
2018-07-13T07:35:44.603Z,101551.45
2018-07-13T07:38:13.047Z,101549.95
2018-07-13T07:40:41.563Z,101554.60
2018-07-13T07:43:10.026Z,101556.78
2018-07-13T07:45:38.446Z,101549.70
2018-07-13T07:48:07.101Z,101548.28
2018-07-13T07:50:35.714Z,101548.76
2018-07-13T07:53:04.117Z,101553.80
2018-07-13T07:55:32.550Z,101553.32
2018-07-13T07:58:00.965Z,101557.59
2018-07-13T08:00:30.406Z,101556.86
2018-07-13T08:02:58.827Z,101557.58
2018-07-13T08:05:27.263Z,101551.21
2018-07-13T08:07:55.674Z,101561.53
2018-07-13T08:10:24.111Z,101562.18
2018-07-13T08:12:52.594Z,101561.72
2018-07-13T08:15:21.041Z,101563.56
2018-07-13T08:17:49.445Z,101563.98
2018-07-13T08:20:20.735Z,101557.80
2018-07-13T08:22:52.018Z,101563.50
2018-07-13T08:25:21.017Z,101567.36
2018-07-13T08:27:52.097Z,101566.80
2018-07-13T08:30:32.053Z,101572.44
2018-07-13T08:33:00.467Z,101579.24
2018-07-13T08:35:28.869Z,101575.47
2018-07-13T08:37:57.251Z,101575.33
2018-07-13T08:40:25.695Z,101575.33
2018-07-13T08:42:54.118Z,101577.03
2018-07-13T08:45:22.527Z,101572.87
2018-07-13T08:47:50.918Z,101574.09
2018-07-13T08:50:19.342Z,101573.33
2018-07-13T08:52:47.747Z,101565.14
2018-07-13T08:55:16.858Z,101570.38
2018-07-13T08:57:47.642Z,101572.87
2018-07-13T09:00:16.069Z,101562.18
2018-07-13T09:02:44.459Z,101566.40
2018-07-13T09:05:12.885Z,101565.05
2018-07-13T09:07:41.274Z,101570.16
2018-07-13T09:10:12.047Z,101572.45
2018-07-13T09:12:40.726Z,101569.90
2018-07-13T09:15:09.994Z,101568.14
2018-07-13T09:17:38.379Z,101576.92
2018-07-13T09:20:08.335Z,101568.80
2018-07-13T09:22:36.722Z,101572.71
2018-07-13T09:25:05.214Z,101573.54
2018-07-13T09:27:33.599Z,101574.77
2018-07-13T09:30:02.005Z,101575.08
2018-07-13T09:32:30.405Z,101573.06
2018-07-13T09:34:58.871Z,101572.39
2018-07-13T09:37:27.413Z,101574.78
2018-07-13T09:39:55.822Z,101575.87
2018-07-13T09:42:24.204Z,101579.78
2018-07-13T09:44:52.611Z,101577.95
2018-07-13T09:47:20.994Z,101586.25
2018-07-13T09:49:49.405Z,101576.46
2018-07-13T09:52:17.783Z,101579.77
2018-07-13T09:54:46.198Z,101582.85
2018-07-13T09:57:14.581Z,101588.63
2018-07-13T09:59:43.122Z,101583.61
2018-07-13T10:02:11.514Z,101581.78
2018-07-13T10:04:39.923Z,101582.83
2018-07-13T10:07:08.461Z,101585.13
2018-07-13T10:09:36.842Z,101581.32
2018-07-13T10:12:05.275Z,101582.47
2018-07-13T10:14:33.884Z,101572.59
2018-07-13T10:17:02.294Z,101582.53
2018-07-13T10:19:30.721Z,101581.38
2018-07-13T10:21:59.275Z,101580.79
2018-07-13T10:24:28.162Z,101575.21
2018-07-13T10:26:57.287Z,101585.85
2018-07-13T10:29:29.943Z,101583.81
2018-07-13T10:31:58.434Z,101576.90
2018-07-13T10:34:26.822Z,101581.63
2018-07-13T10:37:00.776Z,101580.52
2018-07-13T10:39:29.240Z,101582.08
2018-07-13T10:41:57.659Z,101579.66
2018-07-13T10:44:26.029Z,101569.63
2018-07-13T10:46:54.601Z,101573.54
2018-07-13T10:49:22.986Z,101571.14
2018-07-13T10:51:51.978Z,101564.48
2018-07-13T10:54:20.642Z,101561.02
2018-07-13T10:56:49.046Z,101566.33
2018-07-13T10:59:17.544Z,101573.25
2018-07-13T11:01:46.110Z,101569.22
2018-07-13T11:04:14.982Z,101567.12
2018-07-13T11:06:44.405Z,101564.17
2018-07-13T11:09:12.778Z,101567.00
2018-07-13T11:11:41.228Z,101560.61
2018-07-13T11:14:09.878Z,101562.63
2018-07-13T11:16:38.534Z,101548.80
2018-07-13T11:19:06.947Z,101558.28
2018-07-13T11:21:35.497Z,101561.45
2018-07-13T11:24:03.874Z,101560.66
2018-07-13T11:26:32.282Z,101553.22
2018-07-13T11:29:00.923Z,101559.31
2018-07-13T11:31:29.337Z,101558.92
2018-07-13T11:33:57.722Z,101554.61
2018-07-13T11:36:26.163Z,101551.81
2018-07-13T11:38:54.529Z,101549.41
2018-07-13T11:41:22.919Z,101543.03
2018-07-13T11:43:51.791Z,101543.34
2018-07-13T11:46:20.194Z,101538.61
2018-07-13T11:48:48.570Z,101542.22
2018-07-13T11:51:16.974Z,101543.61
2018-07-13T11:53:45.379Z,101539.31
2018-07-13T11:56:14.246Z,101540.97
2018-07-13T11:58:42.626Z,101544.69
2018-07-13T12:01:11.118Z,101539.55
2018-07-13T12:03:39.498Z,101539.68
2018-07-13T12:06:08.166Z,101536.28
2018-07-13T12:08:36.622Z,101531.97
2018-07-13T12:11:05.070Z,101535.20
2018-07-13T12:13:33.449Z,101534.87
2018-07-13T12:16:01.851Z,101535.56
2018-07-13T12:18:30.363Z,101527.95
2018-07-13T12:20:58.747Z,101531.74
2018-07-13T12:23:27.163Z,101527.86
2018-07-13T12:25:55.554Z,101529.76
2018-07-13T12:28:24.295Z,101523.35
2018-07-13T12:30:52.667Z,101522.61
2018-07-13T12:33:21.071Z,101523.30
2018-07-13T12:35:49.465Z,101524.38
2018-07-13T12:38:17.882Z,101516.58
2018-07-13T12:40:46.263Z,101532.29
2018-07-13T12:43:14.667Z,101526.64
2018-07-13T12:45:43.049Z,101514.02
2018-07-13T12:48:11.544Z,101517.38
2018-07-13T12:50:39.926Z,101518.41
2018-07-13T12:53:08.335Z,101519.36
2018-07-13T12:55:36.722Z,101514.97
2018-07-13T12:58:05.291Z,101512.53
2018-07-13T13:00:33.677Z,101514.82
2018-07-13T13:03:02.091Z,101515.40
2018-07-13T13:05:30.567Z,101521.00
2018-07-13T13:07:59.133Z,101511.97
2018-07-13T13:10:27.502Z,101515.72
2018-07-13T13:12:56.116Z,101514.16
2018-07-13T13:15:24.600Z,101521.06
2018-07-13T13:17:52.913Z,101521.79
2018-07-13T13:20:21.427Z,101519.34
2018-07-13T13:22:49.959Z,101528.09
2018-07-13T13:25:18.330Z,101523.53
2018-07-13T13:27:46.730Z,101523.53
2018-07-13T13:30:15.110Z,101509.70
2018-07-13T13:32:43.519Z,101518.41
2018-07-13T13:35:11.891Z,101518.83
2018-07-13T13:37:40.297Z,101513.96
2018-07-13T13:40:08.688Z,101519.23
2018-07-13T13:42:37.073Z,101516.56
2018-07-13T13:45:05.450Z,101513.73
2018-07-13T13:47:33.843Z,101511.85
2018-07-13T13:50:02.205Z,101524.67
2018-07-13T13:52:30.598Z,101521.52
2018-07-13T13:54:58.981Z,101514.94
2018-07-13T13:57:27.390Z,101517.99
2018-07-13T13:59:55.803Z,101521.94
2018-07-13T14:02:24.183Z,101516.59
2018-07-13T14:04:52.587Z,101513.60
2018-07-13T14:07:20.990Z,101500.34
2018-07-13T14:09:49.407Z,101525.31
2018-07-13T14:12:17.874Z,101518.16
2018-07-13T14:14:46.285Z,101530.18
2018-07-13T14:17:14.671Z,101513.73
2018-07-13T14:19:43.071Z,101521.75
2018-07-13T14:22:11.601Z,101518.22
2018-07-13T14:24:40.011Z,101521.91
2018-07-13T14:27:08.381Z,101520.52
2018-07-13T14:29:36.807Z,101519.08
2018-07-13T14:32:05.593Z,101509.97
2018-07-13T14:34:33.999Z,101517.52
2018-07-13T14:37:02.446Z,101518.78
2018-07-13T14:39:30.842Z,101514.36
2018-07-13T14:41:59.215Z,101524.67
2018-07-13T14:44:27.623Z,101519.33
2018-07-13T14:46:56.043Z,101518.47
2018-07-13T14:49:24.438Z,101516.97
2018-07-13T14:51:52.915Z,101518.63
2018-07-13T14:54:21.319Z,101520.91
2018-07-13T14:56:49.701Z,101515.16
2018-07-13T14:59:18.122Z,101519.64
2018-07-13T15:01:46.504Z,101512.64
2018-07-13T15:04:14.958Z,101512.27
2018-07-13T15:06:43.378Z,101489.34
2018-07-13T15:09:11.745Z,101508.80
2018-07-13T15:11:40.143Z,101498.11
2018-07-13T15:14:08.570Z,101505.72
2018-07-13T15:16:36.946Z,101500.38
2018-07-13T15:19:05.388Z,101504.31
2018-07-13T15:21:33.763Z,101499.83
2018-07-13T15:24:02.168Z,101499.77
2018-07-13T15:26:30.551Z,101499.22
2018-07-13T15:28:58.979Z,101491.81
2018-07-13T15:31:27.365Z,101494.01
2018-07-13T15:33:55.750Z,101491.81
2018-07-13T15:36:24.118Z,101491.75
2018-07-13T15:38:52.514Z,101492.44
2018-07-13T15:41:20.898Z,101489.29
2018-07-13T15:43:49.610Z,101491.52
2018-07-13T15:46:17.978Z,101486.93
2018-07-13T15:48:46.378Z,101489.22
2018-07-13T15:51:14.763Z,101487.95
2018-07-13T15:53:43.167Z,101491.20
2018-07-13T15:56:11.533Z,101488.59
2018-07-13T15:58:39.951Z,101484.59
2018-07-13T16:01:08.358Z,101490.31
2018-07-13T16:03:36.779Z,101486.47
2018-07-13T16:06:05.162Z,101491.34
2018-07-13T16:08:33.559Z,101480.27
2018-07-13T16:11:01.964Z,101493.69
2018-07-13T16:13:30.349Z,101492.04
2018-07-13T16:15:58.778Z,101490.26
2018-07-13T16:18:27.158Z,101489.78
2018-07-13T16:20:55.562Z,101487.80
2018-07-13T16:23:23.956Z,101480.74
2018-07-13T16:25:52.359Z,101486.25
2018-07-13T16:28:20.876Z,101485.11
2018-07-13T16:30:49.150Z,101487.31
2018-07-13T16:33:17.545Z,101485.06
2018-07-13T16:35:45.921Z,101483.18
2018-07-13T16:38:14.323Z,101490.77
2018-07-13T16:40:42.731Z,101485.00
2018-07-13T16:43:11.135Z,101491.03
2018-07-13T16:45:39.510Z,101485.83
2018-07-13T16:48:07.911Z,101495.33
2018-07-13T16:50:36.321Z,101488.27
2018-07-13T16:53:04.735Z,101485.05
2018-07-13T16:55:33.114Z,101495.64
2018-07-13T16:58:01.635Z,101501.54
2018-07-13T17:00:30.144Z,101494.75
2018-07-13T17:02:58.638Z,101496.09
2018-07-13T17:05:27.134Z,101495.64
2018-07-13T17:07:55.574Z,101498.39
2018-07-13T17:10:23.992Z,101496.92
2018-07-13T17:12:52.435Z,101495.20
2018-07-13T17:15:20.844Z,101506.78
2018-07-13T17:17:49.231Z,101500.05
2018-07-13T17:20:17.724Z,101508.59
2018-07-13T17:22:46.155Z,101503.33
2018-07-13T17:25:14.591Z,101506.77
2018-07-13T17:27:43.005Z,101509.18
2018-07-13T17:30:11.879Z,101506.09
2018-07-13T17:32:40.271Z,101514.55
2018-07-13T17:35:08.706Z,101515.21
2018-07-13T17:37:37.090Z,101517.91
2018-07-13T17:40:05.859Z,101521.58
2018-07-13T17:42:34.297Z,101522.16
2018-07-13T17:45:02.706Z,101529.94
2018-07-13T17:47:31.098Z,101527.17
2018-07-13T17:49:59.511Z,101530.38
2018-07-13T17:52:27.898Z,101536.92
2018-07-13T17:54:56.362Z,101537.95
2018-07-13T17:57:24.733Z,101533.98
2018-07-13T17:59:53.160Z,101538.95
2018-07-13T18:02:21.539Z,101538.21
2018-07-13T18:04:49.938Z,101543.13
2018-07-13T18:07:18.358Z,101540.55
2018-07-13T18:09:46.761Z,101541.56
2018-07-13T18:12:15.134Z,101542.36
2018-07-13T18:14:43.525Z,101542.58
2018-07-13T18:17:11.896Z,101549.23
2018-07-13T18:19:40.327Z,101554.97
2018-07-13T18:22:08.701Z,101555.55
2018-07-13T18:24:37.115Z,101556.41
2018-07-13T18:27:05.486Z,101559.20
2018-07-13T18:29:33.864Z,101561.91
2018-07-13T18:32:02.265Z,101567.19
2018-07-13T18:34:31.855Z,101570.25
2018-07-13T18:37:00.313Z,101572.34
2018-07-13T18:39:28.691Z,101573.25
2018-07-13T18:41:57.093Z,101576.39
2018-07-13T18:44:25.919Z,101576.01
2018-07-13T18:46:54.274Z,101585.71
2018-07-13T18:49:22.644Z,101578.63
2018-07-13T18:51:51.122Z,101582.69
2018-07-13T18:54:19.599Z,101583.60
2018-07-13T18:56:48.012Z,101585.84
2018-07-13T18:59:16.386Z,101586.59
2018-07-13T19:01:44.794Z,101587.84
2018-07-13T19:04:13.193Z,101588.51
2018-07-13T19:06:41.595Z,101587.95
2018-07-13T19:09:10.607Z,101586.45
2018-07-13T19:11:39.035Z,101586.77
2018-07-13T19:14:07.410Z,101585.73
2018-07-13T19:16:35.815Z,101589.07
2018-07-13T19:19:04.190Z,101587.53
2018-07-13T19:21:32.591Z,101587.75
2018-07-13T19:24:01.083Z,101596.39
2018-07-13T19:26:29.491Z,101587.45
2018-07-13T19:28:57.865Z,101600.11
2018-07-13T19:31:26.272Z,101600.45
2018-07-13T19:33:54.773Z,101601.11
2018-07-13T19:36:23.212Z,101606.75
2018-07-13T19:38:51.594Z,101610.55
2018-07-13T19:41:19.990Z,101615.66
2018-07-13T19:43:48.822Z,101613.37
2018-07-13T19:46:17.286Z,101618.09
2018-07-13T19:48:45.670Z,101621.05
2018-07-13T19:51:14.217Z,101628.38
2018-07-13T19:53:42.614Z,101630.77
2018-07-13T19:56:10.992Z,101631.44
2018-07-13T19:58:39.400Z,101631.54
2018-07-13T20:01:07.816Z,101636.14
2018-07-13T20:03:36.214Z,101634.09
2018-07-13T20:06:04.592Z,101637.80
2018-07-13T20:08:33.047Z,101633.56
2018-07-13T20:11:01.543Z,101637.72
2018-07-13T20:13:29.879Z,101646.70
2018-07-13T20:15:59.801Z,101649.97
2018-07-13T20:18:28.218Z,101654.55
2018-07-13T20:20:56.628Z,101658.22
2018-07-13T20:23:25.018Z,101657.06
2018-07-13T20:25:53.394Z,101655.81
2018-07-13T20:28:21.794Z,101648.91
2018-07-13T20:30:50.178Z,101645.62
2018-07-13T20:33:18.607Z,101642.24
2018-07-13T20:35:46.978Z,101640.70
2018-07-13T20:38:15.390Z,101647.01
2018-07-13T20:40:43.777Z,101648.48
2018-07-13T20:43:12.179Z,101652.16
2018-07-13T20:45:40.671Z,101648.32
2018-07-13T20:48:09.065Z,101654.55
2018-07-13T20:50:37.445Z,101651.09
2018-07-13T20:53:05.847Z,101652.89
2018-07-13T20:55:34.231Z,101650.76
2018-07-13T20:58:02.638Z,101655.14
2018-07-13T21:00:31.005Z,101651.23
2018-07-13T21:02:59.444Z,101654.36
2018-07-13T21:05:27.814Z,101655.35
2018-07-13T21:07:56.315Z,101653.69
2018-07-13T21:10:24.686Z,101652.05
2018-07-13T21:12:53.067Z,101654.33
2018-07-13T21:15:21.467Z,101652.28
2018-07-13T21:17:49.834Z,101654.59
2018-07-13T21:20:18.331Z,101648.13
2018-07-13T21:22:46.638Z,101648.24
2018-07-13T21:25:15.043Z,101647.45
2018-07-13T21:27:43.439Z,101648.89
2018-07-13T21:30:11.849Z,101645.06
2018-07-13T21:32:40.386Z,101650.38
2018-07-13T21:35:08.786Z,101644.36
2018-07-13T21:37:37.188Z,101639.61
2018-07-13T21:40:05.746Z,101644.59
2018-07-13T21:42:34.114Z,101646.89
2018-07-13T21:45:02.526Z,101654.04
2018-07-13T21:47:30.889Z,101656.33
2018-07-13T21:49:59.289Z,101662.11
2018-07-13T21:52:27.666Z,101667.91
2018-07-13T21:54:56.072Z,101665.77
2018-07-13T21:57:24.578Z,101668.50
2018-07-13T21:59:52.970Z,101673.41
2018-07-13T22:02:21.386Z,101676.52
2018-07-13T22:04:49.799Z,101672.16
2018-07-13T22:07:18.218Z,101672.20
2018-07-13T22:09:46.619Z,101671.38
2018-07-13T22:12:15.008Z,101673.19
2018-07-13T22:14:43.418Z,101669.73
2018-07-13T22:17:11.810Z,101672.00
2018-07-13T22:19:40.214Z,101671.14
2018-07-13T22:22:08.595Z,101671.17
2018-07-13T22:24:37.018Z,101674.72
2018-07-13T22:27:05.683Z,101673.89
2018-07-13T22:29:34.107Z,101675.24
2018-07-13T22:32:02.491Z,101670.87
2018-07-13T22:34:30.871Z,101675.28
2018-07-13T22:36:59.278Z,101672.23
2018-07-13T22:39:27.654Z,101678.89
2018-07-13T22:41:56.051Z,101677.61
2018-07-13T22:44:24.425Z,101685.55
2018-07-13T22:46:52.830Z,101681.17
2018-07-13T22:49:21.202Z,101681.66
2018-07-13T22:51:49.611Z,101679.09
2018-07-13T22:54:18.004Z,101684.80
2018-07-13T22:56:46.398Z,101683.09
2018-07-13T22:59:14.788Z,101688.84
2018-07-13T23:01:43.208Z,101682.70
2018-07-13T23:04:11.601Z,101691.05
2018-07-13T23:06:40.066Z,101683.59
2018-07-13T23:09:08.806Z,101681.86
2018-07-13T23:11:37.277Z,101677.52
2018-07-13T23:14:05.817Z,101674.92
2018-07-13T23:16:35.823Z,101676.70
2018-07-13T23:19:04.206Z,101680.67
2018-07-13T23:21:32.650Z,101686.41
2018-07-13T23:24:01.009Z,101692.55
2018-07-13T23:26:29.474Z,101687.77
2018-07-13T23:28:57.843Z,101693.48
2018-07-13T23:31:26.244Z,101699.22
2018-07-13T23:33:54.618Z,101688.72
2018-07-13T23:36:23.022Z,101686.52
2018-07-13T23:38:51.398Z,101683.05
2018-07-13T23:41:19.815Z,101694.00
2018-07-13T23:43:48.207Z,101693.58
2018-07-13T23:46:16.610Z,101691.84
2018-07-13T23:48:44.991Z,101687.47
2018-07-13T23:51:13.414Z,101687.91
2018-07-13T23:53:41.795Z,101689.25
2018-07-13T23:56:10.178Z,101690.97
2018-07-13T23:58:38.606Z,101687.02
